Time;durP1;ratioP1;P1;durP2;ratioP2;P2;SDS_P1;SDS_P2;PMS_P1;PMS_P2;Temp;Humidity;BMP_temperature;BMP_pressure;BME280_temperature;BME280_humidity;BME280_pressure;Samples;Min_cycle;Max_cycle;Signal;HPM_P1;HPM_P2
2022/07/22 00:01:40;;;;;;;5.88;5.28;;;19.90;99.90;;;;;;4975065;28;20169;-89
2022/07/22 00:04:11;;;;;;;5.97;5.38;;;19.80;99.90;;;;;;4973707;28;20183;-89
2022/07/22 00:06:37;;;;;;;5.35;4.85;;;19.80;99.90;;;;;;4973728;28;20232;-90
2022/07/22 00:09:04;;;;;;;7.55;5.38;;;19.90;99.90;;;;;;4973991;28;20188;-90
2022/07/22 00:11:31;;;;;;;5.22;4.57;;;19.80;99.90;;;;;;4973741;28;20175;-89
2022/07/22 00:13:57;;;;;;;5.65;4.93;;;19.80;99.90;;;;;;4973824;28;20184;-89
2022/07/22 00:16:25;;;;;;;5.82;5.13;;;19.80;99.90;;;;;;4973533;28;20193;-89
2022/07/22 00:18:52;;;;;;;5.95;5.35;;;19.80;99.90;;;;;;4973550;28;20716;-89
2022/07/22 00:21:19;;;;;;;6.10;5.50;;;19.80;99.90;;;;;;4974856;28;20196;-88
2022/07/22 00:23:44;;;;;;;5.72;5.13;;;19.80;99.90;;;;;;4973688;28;20167;-88
2022/07/22 00:26:10;;;;;;;5.80;5.30;;;19.80;99.90;;;;;;4973505;28;20287;-90
2022/07/22 00:28:37;;;;;;;5.80;5.20;;;19.80;99.90;;;;;;4973636;28;20268;-89
2022/07/22 00:31:03;;;;;;;5.72;5.13;;;19.80;99.90;;;;;;4973915;28;20180;-88
2022/07/22 00:33:30;;;;;;;6.78;5.50;;;19.70;99.90;;;;;;4973531;28;20227;-89
2022/07/22 00:35:56;;;;;;;7.65;5.50;;;19.80;99.90;;;;;;4975482;28;20267;-89
2022/07/22 00:38:39;;;;;;;7.40;5.30;;;19.70;99.90;;;;;;4978365;28;20296;-90
2022/07/22 00:41:10;;;;;;;5.60;4.95;;;19.80;99.90;;;;;;4977117;28;20215;-89
2022/07/22 00:46:15;;;;;;;7.05;5.50;;;19.70;99.90;;;;;;5298671;23;20243;-85
2022/07/22 00:48:41;;;;;;;6.10;5.43;;;19.70;99.90;;;;;;4997258;28;20191;-82
2022/07/22 00:51:07;;;;;;;5.38;4.88;;;19.60;99.90;;;;;;4997871;28;20629;-85
2022/07/22 00:53:32;;;;;;;8.68;5.25;;;19.60;99.90;;;;;;4996528;28;20188;-83
2022/07/22 00:55:59;;;;;;;6.40;5.72;;;19.60;99.90;;;;;;4997533;28;20258;-82
2022/07/22 00:58:24;;;;;;;7.25;5.68;;;19.60;99.90;;;;;;5009414;28;20179;-82
2022/07/22 01:00:50;;;;;;;6.18;5.00;;;19.60;99.90;;;;;;5017004;28;20226;-83
2022/07/22 01:03:16;;;;;;;6.40;4.78;;;19.60;99.90;;;;;;5016974;28;20493;-85
2022/07/22 01:05:42;;;;;;;5.97;5.38;;;19.60;99.90;;;;;;5017214;28;20742;-82
2022/07/22 01:08:08;;;;;;;5.35;4.85;;;19.60;99.90;;;;;;5007585;28;20179;-82
2022/07/22 01:10:34;;;;;;;6.57;5.60;;;19.60;99.90;;;;;;4996001;28;20176;-82
2022/07/22 01:13:00;;;;;;;4.93;4.43;;;19.50;99.90;;;;;;4999763;28;20576;-82
2022/07/22 01:15:25;;;;;;;7.35;5.22;;;19.50;99.90;;;;;;5006528;28;20186;-84
2022/07/22 01:17:51;;;;;;;6.07;5.40;;;19.50;99.90;;;;;;5003060;28;20189;-83
2022/07/22 01:20:17;;;;;;;5.78;5.25;;;19.50;99.90;;;;;;5015648;28;20179;-82
2022/07/22 01:22:44;;;;;;;5.78;5.15;;;19.40;99.90;;;;;;5015541;28;20194;-83
2022/07/22 01:25:10;;;;;;;5.93;5.38;;;19.50;99.90;;;;;;5015067;28;20211;-83
2022/07/22 01:27:36;;;;;;;5.93;4.75;;;19.40;99.90;;;;;;5013044;28;20623;-83
2022/07/22 01:30:04;;;;;;;6.22;5.18;;;19.40;99.90;;;;;;4995701;28;20195;-83
2022/07/22 01:32:29;;;;;;;6.40;5.28;;;19.40;99.90;;;;;;4995700;28;20498;-82
2022/07/22 01:34:55;;;;;;;5.70;5.20;;;19.50;99.90;;;;;;4997021;28;20187;-86
2022/07/22 01:37:21;;;;;;;7.60;5.38;;;19.40;99.90;;;;;;4995711;28;20180;-82
2022/07/22 01:39:48;;;;;;;5.40;4.90;;;19.40;99.90;;;;;;4995479;28;20175;-84
2022/07/22 01:42:13;;;;;;;5.68;4.97;;;19.40;99.90;;;;;;4996710;28;20178;-82
2022/07/22 01:44:39;;;;;;;5.38;4.88;;;19.40;99.90;;;;;;5012296;28;20294;-83
2022/07/22 01:47:05;;;;;;;5.55;4.95;;;19.40;99.90;;;;;;5013760;28;20183;-83
2022/07/22 01:49:31;;;;;;;5.53;4.82;;;19.40;99.90;;;;;;4997914;28;20226;-81
2022/07/22 01:51:56;;;;;;;5.30;4.80;;;19.40;99.90;;;;;;4995240;28;20266;-83
2022/07/22 01:54:22;;;;;;;5.10;4.60;;;19.40;99.90;;;;;;4996680;28;20250;-84
2022/07/22 01:56:48;;;;;;;7.43;5.50;;;19.40;99.90;;;;;;4995286;28;20607;-84
2022/07/22 01:59:13;;;;;;;5.53;4.82;;;19.40;99.90;;;;;;5009418;28;20187;-82
2022/07/22 02:01:39;;;;;;;6.68;4.28;;;19.40;99.90;;;;;;5014550;28;20262;-82
2022/07/22 02:04:04;;;;;;;6.28;4.65;;;19.40;99.90;;;;;;5014707;28;20179;-83
2022/07/22 02:06:31;;;;;;;6.28;4.70;;;19.40;99.90;;;;;;5015496;28;20183;-82
2022/07/22 02:08:56;;;;;;;5.57;4.55;;;19.50;99.90;;;;;;4995255;28;20182;-82
2022/07/22 02:11:22;;;;;;;6.30;4.47;;;19.50;99.90;;;;;;4994881;28;20187;-83
2022/07/22 02:13:48;;;;;;;6.30;5.43;;;19.50;99.90;;;;;;4996201;28;20169;-83
2022/07/22 02:16:13;;;;;;;5.47;4.75;;;19.50;99.90;;;;;;5003057;28;20182;-82
2022/07/22 02:18:39;;;;;;;5.30;4.70;;;19.50;99.90;;;;;;4998278;28;20198;-85
2022/07/22 02:21:05;;;;;;;4.82;4.28;;;19.50;99.90;;;;;;4996221;28;20251;-85
2022/07/22 02:23:30;;;;;;;7.57;4.70;;;19.50;99.90;;;;;;4996061;28;20519;-85
2022/07/22 02:25:56;;;;;;;5.32;4.82;;;19.50;99.90;;;;;;4995932;28;20280;-82
2022/07/22 02:28:22;;;;;;;6.32;4.45;;;19.50;99.90;;;;;;5009912;28;20186;-83
2022/07/22 02:30:47;;;;;;;5.50;4.82;;;19.50;99.90;;;;;;5015384;28;20318;-82
2022/07/22 02:33:14;;;;;;;4.95;4.45;;;19.50;99.90;;;;;;5014258;28;20613;-82
2022/07/22 02:35:40;;;;;;;5.47;4.30;;;19.50;99.90;;;;;;5014164;28;20175;-81
2022/07/22 02:38:07;;;;;;;4.63;4.10;;;19.50;99.90;;;;;;5011960;28;20199;-91
2022/07/22 02:40:32;;;;;;;5.45;4.50;;;19.50;99.90;;;;;;5021824;28;20174;-90
2022/07/22 02:42:59;;;;;;;5.90;4.32;;;19.50;99.90;;;;;;5031337;28;20317;-89
2022/07/22 02:45:25;;;;;;;6.38;4.95;;;19.50;99.90;;;;;;4998489;28;20235;-89
2022/07/22 02:47:53;;;;;;;5.57;4.88;;;19.50;99.90;;;;;;5032196;28;20187;-90
2022/07/22 02:50:20;;;;;;;5.85;4.68;;;19.50;99.90;;;;;;5015977;28;20171;-94
2022/07/22 02:52:46;;;;;;;5.93;4.50;;;19.50;99.90;;;;;;5015704;28;20245;-91
2022/07/22 02:55:11;;;;;;;5.05;4.45;;;19.50;99.90;;;;;;5015349;28;20835;-91
2022/07/22 02:57:42;;;;;;;5.00;4.43;;;19.50;99.90;;;;;;5010635;28;20183;-92
2022/07/22 03:00:10;;;;;;;4.90;4.47;;;19.50;99.90;;;;;;5015366;28;20175;-92
2022/07/22 03:02:35;;;;;;;4.95;4.45;;;19.50;99.90;;;;;;5015530;28;20179;-92
2022/07/22 03:05:02;;;;;;;4.85;4.13;;;19.50;99.90;;;;;;5015294;28;20222;-91
2022/07/22 03:07:31;;;;;;;5.03;4.32;;;19.50;99.90;;;;;;5002923;28;20188;-93
2022/07/22 03:09:57;;;;;;;5.93;4.15;;;19.50;99.90;;;;;;5011317;28;20183;-95
2022/07/22 03:12:23;;;;;;;4.47;4.07;;;19.50;99.90;;;;;;5016486;28;20175;-93
2022/07/22 03:14:49;;;;;;;6.85;4.60;;;19.50;99.90;;;;;;5016646;28;20190;-92
2022/07/22 03:17:23;;;;;;;4.90;4.20;;;19.50;99.90;;;;;;5000598;28;20191;-95
2022/07/22 03:19:48;;;;;;;6.93;4.47;;;19.50;99.90;;;;;;4999414;28;20210;-95
2022/07/22 03:22:14;;;;;;;4.88;4.38;;;19.60;99.90;;;;;;4998818;28;20607;-90
2022/07/22 03:24:39;;;;;;;4.70;4.20;;;19.50;99.90;;;;;;4996719;28;20491;-88
2022/07/22 03:27:07;;;;;;;5.13;4.63;;;19.50;99.90;;;;;;4996222;28;20210;-95
2022/07/22 03:29:33;;;;;;;5.05;4.55;;;19.50;99.90;;;;;;4996871;28;20172;-93
2022/07/22 03:31:58;;;;;;;5.95;5.10;;;19.50;99.90;;;;;;4996150;28;20271;-93
2022/07/22 03:34:24;;;;;;;6.20;5.10;;;19.50;99.90;;;;;;4995887;28;20184;-94
2022/07/22 03:36:50;;;;;;;6.82;5.30;;;19.50;99.90;;;;;;5006402;28;20179;-94
2022/07/22 03:39:17;;;;;;;6.18;5.50;;;19.50;99.90;;;;;;5016252;28;20190;-92
2022/07/22 03:41:44;;;;;;;7.38;5.20;;;19.40;99.90;;;;;;5017515;28;20550;-95
2022/07/22 03:44:11;;;;;;;7.55;6.50;;;19.40;99.90;;;;;;5015649;28;20179;-96
2022/07/22 03:46:37;;;;;;;6.13;5.53;;;19.40;99.90;;;;;;5013082;28;20223;-93
2022/07/22 03:49:02;;;;;;;7.95;6.97;;;19.40;99.90;;;;;;5016310;28;20178;-93
2022/07/22 03:51:28;;;;;;;8.27;6.25;;;19.30;99.90;;;;;;5015007;28;20179;-94
2022/07/22 03:53:53;;;;;;;8.32;6.55;;;19.30;99.90;;;;;;5014457;28;20175;-94
2022/07/22 03:56:19;;;;;;;8.48;7.10;;;19.30;99.90;;;;;;5014539;28;20234;-90
2022/07/22 03:58:58;;;;;;;7.53;6.72;;;19.30;99.90;;;;;;5014385;28;20207;-91
2022/07/22 04:01:23;;;;;;;9.70;7.40;;;19.30;99.90;;;;;;5015075;28;20160;-91
2022/07/22 04:03:49;;;;;;;10.23;6.93;;;19.30;99.90;;;;;;5013979;28;20585;-92
2022/07/22 04:06:15;;;;;;;8.23;7.38;;;19.30;99.90;;;;;;5013944;28;20214;-89
2022/07/22 04:08:42;;;;;;;8.00;7.15;;;19.30;99.90;;;;;;5015222;28;20512;-89
2022/07/22 04:11:08;;;;;;;6.95;6.25;;;19.20;99.90;;;;;;5014670;28;20171;-93
2022/07/22 04:13:33;;;;;;;7.22;6.32;;;19.30;99.90;;;;;;5014136;28;20672;-92
2022/07/22 04:15:59;;;;;;;5.10;4.60;;;19.20;99.90;;;;;;5012981;28;20186;-88
2022/07/22 04:18:25;;;;;;;5.45;3.83;;;19.20;99.90;;;;;;4993767;28;20182;-87
2022/07/22 04:20:50;;;;;;;3.47;3.17;;;19.20;99.90;;;;;;4993377;28;20234;-87
2022/07/22 04:23:16;;;;;;;3.78;3.08;;;19.20;99.90;;;;;;4994243;28;20211;-88
2022/07/22 04:25:42;;;;;;;2.97;2.67;;;19.20;99.90;;;;;;4995278;28;20210;-89
2022/07/22 04:28:07;;;;;;;7.22;2.65;;;19.10;99.90;;;;;;4994289;28;20179;-88
2022/07/22 04:30:33;;;;;;;3.28;2.60;;;19.10;99.90;;;;;;4994239;28;20271;-89
2022/07/22 04:32:59;;;;;;;2.88;2.50;;;19.00;99.90;;;;;;4993373;28;20234;-86
2022/07/22 04:35:25;;;;;;;3.38;2.80;;;18.90;99.90;;;;;;4993700;28;20184;-86
2022/07/22 04:37:51;;;;;;;3.47;2.85;;;18.80;99.90;;;;;;5009112;28;20206;-87
2022/07/22 04:40:16;;;;;;;3.63;2.85;;;18.80;99.90;;;;;;5013604;28;20245;-88
2022/07/22 04:42:42;;;;;;;3.80;2.80;;;18.80;99.90;;;;;;5004784;28;20626;-87
2022/07/22 04:45:08;;;;;;;4.35;2.97;;;18.70;99.90;;;;;;4993491;28;20686;-88
2022/07/22 04:47:34;;;;;;;5.43;2.88;;;18.70;99.90;;;;;;5006207;28;20187;-90
2022/07/22 04:50:00;;;;;;;4.28;3.30;;;18.70;99.90;;;;;;5013275;28;20279;-87
2022/07/22 04:52:26;;;;;;;5.07;3.38;;;18.70;99.90;;;;;;5013321;28;20262;-88
2022/07/22 04:54:51;;;;;;;5.15;4.20;;;18.70;99.90;;;;;;5013449;28;20180;-88
2022/07/22 04:57:17;;;;;;;5.43;3.78;;;18.70;99.90;;;;;;5003793;28;20512;-89
2022/07/22 04:59:43;;;;;;;5.47;4.05;;;18.60;99.90;;;;;;4993692;28;20176;-88
2022/07/22 05:02:09;;;;;;;4.95;3.45;;;18.60;99.90;;;;;;4993732;28;20214;-88
2022/07/22 05:04:35;;;;;;;4.78;4.20;;;18.60;99.90;;;;;;4993805;28;20236;-90
2022/07/22 05:07:02;;;;;;;6.40;4.28;;;18.60;99.90;;;;;;5000285;28;20189;-93
2022/07/22 05:09:33;;;;;;;6.15;4.40;;;18.40;99.90;;;;;;5013668;28;20203;-88
2022/07/22 05:11:59;;;;;;;5.93;3.95;;;18.50;99.90;;;;;;5013333;28;20235;-87
2022/07/22 05:14:24;;;;;;;5.03;4.18;;;18.40;99.90;;;;;;5011599;28;20203;-89
2022/07/22 05:16:50;;;;;;;5.15;3.83;;;18.40;99.90;;;;;;4996228;28;20191;-89
2022/07/22 05:19:22;;;;;;;4.72;3.85;;;18.40;99.90;;;;;;5003062;28;20330;-89
2022/07/22 05:21:47;;;;;;;4.45;3.95;;;18.40;99.90;;;;;;4994640;28;20235;-90
2022/07/22 05:24:13;;;;;;;5.38;4.47;;;18.40;99.90;;;;;;4996539;28;20274;-88
2022/07/22 05:26:39;;;;;;;9.52;6.65;;;18.40;99.90;;;;;;5003074;28;20524;-85
2022/07/22 05:29:05;;;;;;;10.35;7.70;;;18.40;99.90;;;;;;5016036;28;20618;-85
2022/07/22 05:31:30;;;;;;;10.20;7.78;;;18.30;99.90;;;;;;5008338;28;20627;-88
2022/07/22 05:33:56;;;;;;;13.55;8.63;;;18.30;99.90;;;;;;4997854;28;20172;-88
2022/07/22 05:36:22;;;;;;;14.07;8.10;;;18.40;99.90;;;;;;5004790;28;20522;-87
2022/07/22 05:38:48;;;;;;;11.65;8.90;;;18.30;99.90;;;;;;4997729;28;20538;-87
2022/07/22 05:41:14;;;;;;;12.75;9.60;;;18.30;99.90;;;;;;5001064;28;20188;-89
2022/07/22 05:43:40;;;;;;;13.25;9.77;;;18.30;99.90;;;;;;5001352;28;20191;-85
2022/07/22 05:46:07;;;;;;;12.75;10.00;;;18.20;99.90;;;;;;5024463;28;20230;-86
2022/07/22 05:48:33;;;;;;;12.70;10.10;;;18.30;99.90;;;;;;5027254;28;20186;-86
2022/07/22 05:50:59;;;;;;;12.30;9.50;;;18.20;99.90;;;;;;5020763;28;20201;-86
2022/07/22 05:53:25;;;;;;;13.07;9.40;;;18.10;99.90;;;;;;5032991;28;20205;-86
2022/07/22 05:55:51;;;;;;;10.45;8.57;;;18.10;99.90;;;;;;5036394;28;20510;-86
2022/07/22 05:58:16;;;;;;;10.65;7.63;;;18.10;99.90;;;;;;5036361;28;20217;-87
2022/07/22 06:00:42;;;;;;;8.43;7.30;;;18.00;99.90;;;;;;5036474;28;20605;-87
2022/07/22 06:03:08;;;;;;;9.30;7.50;;;18.20;99.90;;;;;;4995949;28;20515;-87
2022/07/22 06:05:35;;;;;;;7.55;6.82;;;18.20;99.90;;;;;;4995682;28;20611;-84
2022/07/22 06:08:01;;;;;;;8.98;6.85;;;18.20;99.90;;;;;;4995380;28;20211;-87
2022/07/22 06:10:28;;;;;;;12.05;8.00;;;18.20;99.90;;;;;;5005899;28;20870;-86
2022/07/22 06:12:53;;;;;;;9.60;7.55;;;18.30;99.90;;;;;;5015458;28;20611;-87
2022/07/22 06:15:19;;;;;;;9.75;7.38;;;18.30;99.90;;;;;;5014043;28;20190;-89
2022/07/22 06:17:44;;;;;;;8.98;7.95;;;18.20;99.90;;;;;;4995624;28;20567;-88
2022/07/22 06:20:10;;;;;;;9.23;8.00;;;18.30;99.90;;;;;;5003905;28;20191;-86
2022/07/22 06:22:38;;;;;;;10.07;8.40;;;18.30;99.90;;;;;;5016056;28;20176;-91
2022/07/22 06:25:05;;;;;;;12.18;8.60;;;18.30;99.90;;;;;;5016232;28;20249;-88
2022/07/22 06:27:31;;;;;;;9.07;7.63;;;18.30;99.90;;;;;;5025191;28;20308;-88
2022/07/22 06:29:57;;;;;;;10.30;8.35;;;18.30;99.90;;;;;;5034726;28;20265;-86
2022/07/22 06:32:23;;;;;;;9.90;8.65;;;18.30;99.90;;;;;;5019016;28;20516;-88
2022/07/22 06:34:49;;;;;;;11.73;8.77;;;18.30;99.90;;;;;;5014504;28;20179;-92
2022/07/22 06:37:14;;;;;;;11.32;9.13;;;18.30;99.90;;;;;;5001213;28;20566;-86
2022/07/22 06:39:40;;;;;;;11.55;8.52;;;18.30;99.90;;;;;;5003184;28;20271;-85
2022/07/22 06:42:05;;;;;;;8.57;7.65;;;18.30;99.90;;;;;;5005123;28;20270;-86
2022/07/22 06:44:31;;;;;;;8.13;7.32;;;18.20;99.90;;;;;;4995076;28;20522;-87
2022/07/22 06:46:57;;;;;;;9.52;8.38;;;18.20;99.90;;;;;;5022883;28;20748;-87
2022/07/22 06:49:23;;;;;;;9.23;7.82;;;18.20;99.90;;;;;;5034056;28;20189;-87
2022/07/22 06:51:49;;;;;;;9.75;7.63;;;18.20;99.90;;;;;;5027966;28;20171;-87
2022/07/22 06:54:15;;;;;;;8.20;7.40;;;18.30;99.90;;;;;;5011900;28;20242;-88
2022/07/22 06:56:40;;;;;;;8.88;7.32;;;18.30;99.90;;;;;;4994652;28;20184;-85
2022/07/22 06:59:07;;;;;;;8.90;7.65;;;18.30;99.90;;;;;;4995031;28;20179;-87
2022/07/22 07:01:33;;;;;;;7.70;6.90;;;18.30;99.90;;;;;;5000325;28;20290;-89
2022/07/22 07:03:58;;;;;;;9.77;6.88;;;18.40;99.90;;;;;;5015316;28;20216;-87
2022/07/22 07:06:24;;;;;;;7.57;6.00;;;18.50;99.90;;;;;;5006935;28;20242;-87
2022/07/22 07:08:50;;;;;;;7.22;6.13;;;18.60;99.90;;;;;;4994591;28;20180;-87
2022/07/22 07:11:15;;;;;;;8.40;6.57;;;18.70;99.90;;;;;;4994488;28;20274;-87
2022/07/22 07:13:41;;;;;;;6.45;5.85;;;18.80;99.90;;;;;;5031312;28;20640;-86
2022/07/22 07:16:07;;;;;;;8.27;5.30;;;18.70;99.90;;;;;;5026196;28;20179;-87
2022/07/22 07:18:32;;;;;;;5.80;5.20;;;18.80;99.90;;;;;;5007392;28;20223;-89
2022/07/22 07:20:58;;;;;;;7.30;5.20;;;18.80;99.90;;;;;;5009255;28;20183;-87
2022/07/22 07:23:24;;;;;;;5.45;4.88;;;18.90;99.90;;;;;;5015144;28;20168;-89
2022/07/22 07:25:49;;;;;;;7.70;5.45;;;19.00;99.90;;;;;;5015149;28;20290;-90
2022/07/22 07:28:15;;;;;;;5.55;5.00;;;19.10;99.90;;;;;;5009568;28;20179;-90
2022/07/22 07:30:40;;;;;;;5.93;5.20;;;19.20;99.90;;;;;;5000086;28;20267;-88
2022/07/22 07:33:06;;;;;;;5.97;5.00;;;19.30;99.90;;;;;;5001520;28;20282;-85
2022/07/22 07:35:32;;;;;;;6.22;5.63;;;19.30;99.90;;;;;;4998349;28;20175;-88
2022/07/22 07:37:58;;;;;;;6.75;5.20;;;19.20;99.90;;;;;;5013913;28;20183;-91
2022/07/22 07:40:24;;;;;;;8.15;5.38;;;19.30;99.90;;;;;;5013748;28;20495;-88
2022/07/22 07:42:49;;;;;;;8.93;4.90;;;19.30;99.90;;;;;;4998692;28;20172;-88
2022/07/22 07:45:15;;;;;;;5.32;4.60;;;19.40;99.90;;;;;;5002001;28;20281;-89
2022/07/22 07:47:40;;;;;;;5.20;4.68;;;19.20;99.90;;;;;;4999423;28;20238;-88
2022/07/22 07:50:07;;;;;;;5.88;4.10;;;19.10;99.90;;;;;;4995181;28;20195;-88
2022/07/22 07:52:44;;;;;;;4.47;3.78;;;19.00;99.90;;;;;;4994387;28;20179;-88
2022/07/22 07:55:12;;;;;;;4.75;3.90;;;19.20;99.90;;;;;;4993791;28;20178;-87
2022/07/22 07:57:38;;;;;;;3.78;3.35;;;19.30;99.90;;;;;;4993885;28;20176;-89
2022/07/22 08:00:08;;;;;;;4.15;3.53;;;19.30;99.90;;;;;;4994256;28;20229;-88
2022/07/22 08:02:34;;;;;;;3.53;2.80;;;19.30;99.90;;;;;;5006519;28;20183;-89
2022/07/22 08:05:01;;;;;;;2.83;2.30;;;19.30;99.90;;;;;;5014613;28;20206;-88
2022/07/22 08:07:27;;;;;;;3.03;2.22;;;19.40;99.90;;;;;;5013695;28;20222;-88
2022/07/22 08:09:54;;;;;;;2.35;2.13;;;19.30;99.90;;;;;;5005485;28;20200;-88
2022/07/22 08:12:20;;;;;;;3.67;2.22;;;19.30;99.90;;;;;;5003528;28;20187;-90
2022/07/22 08:14:45;;;;;;;4.07;2.50;;;19.30;99.90;;;;;;5014715;28;20171;-89
2022/07/22 08:17:11;;;;;;;3.70;2.33;;;19.40;99.90;;;;;;5018179;28;20533;-90
2022/07/22 08:19:42;;;;;;;3.75;2.25;;;19.40;99.90;;;;;;5014638;28;20184;-88
2022/07/22 08:22:08;;;;;;;3.38;2.50;;;19.50;99.90;;;;;;5005979;28;20172;-89
2022/07/22 08:24:33;;;;;;;3.47;2.63;;;19.60;99.90;;;;;;4994075;28;20210;-89
2022/07/22 08:26:59;;;;;;;2.65;2.40;;;19.80;99.90;;;;;;4995143;28;20634;-89
2022/07/22 08:29:25;;;;;;;4.95;2.55;;;19.90;99.90;;;;;;4994376;28;20180;-92
2022/07/22 08:31:51;;;;;;;4.07;2.63;;;20.00;99.90;;;;;;4994094;28;20202;-91
2022/07/22 08:34:17;;;;;;;4.13;2.45;;;20.00;99.90;;;;;;4994039;28;20618;-89
2022/07/22 08:36:42;;;;;;;5.07;2.90;;;19.90;99.90;;;;;;4994068;28;20274;-90
2022/07/22 08:39:08;;;;;;;4.95;2.88;;;20.00;99.90;;;;;;4994916;28;20205;-90
2022/07/22 08:41:36;;;;;;;3.55;2.67;;;19.90;99.90;;;;;;4994491;28;20194;-88
2022/07/22 08:44:03;;;;;;;5.47;2.83;;;19.90;99.90;;;;;;4993358;28;20176;-87
2022/07/22 08:46:29;;;;;;;3.05;2.75;;;19.90;99.90;;;;;;5003038;28;20733;-85
2022/07/22 08:48:55;;;;;;;5.28;2.45;;;19.90;99.90;;;;;;5013206;28;20262;-89
2022/07/22 08:51:22;;;;;;;2.92;2.60;;;20.00;99.90;;;;;;5013550;28;20245;-87
2022/07/22 08:53:47;;;;;;;3.30;3.00;;;20.10;99.90;;;;;;5020479;28;20179;-88
2022/07/22 08:56:14;;;;;;;4.60;3.22;;;20.20;99.90;;;;;;5020818;28;20190;-90
2022/07/22 08:58:40;;;;;;;4.45;3.38;;;20.20;99.90;;;;;;4997428;28;20229;-88
2022/07/22 09:01:10;;;;;;;3.78;3.00;;;20.30;99.90;;;;;;4998481;28;20336;-86
2022/07/22 09:03:43;;;;;;;3.67;2.80;;;20.40;99.90;;;;;;4997440;28;20180;-87
2022/07/22 09:06:09;;;;;;;2.88;2.55;;;20.60;99.90;;;;;;5006689;28;20211;-89
2022/07/22 09:09:10;;;;;;;3.58;2.72;;;20.80;99.90;;;;;;4996924;28;20184;-89
2022/07/22 09:11:37;;;;;;;4.05;2.70;;;20.70;99.90;;;;;;5004239;28;20277;-92
2022/07/22 09:14:03;;;;;;;3.42;2.80;;;20.60;99.90;;;;;;5018019;28;20152;-88
2022/07/22 09:16:47;;;;;;;4.28;2.92;;;20.50;99.90;;;;;;5006686;28;20180;-90
2022/07/22 09:19:14;;;;;;;3.45;3.15;;;20.40;99.90;;;;;;5015433;28;20188;-89
2022/07/22 09:21:47;;;;;;;4.93;3.08;;;20.40;99.90;;;;;;5017055;28;20194;-88
2022/07/22 09:24:35;;;;;;;5.35;3.08;;;20.40;99.90;;;;;;5016200;28;20179;-91
2022/07/22 09:27:01;;;;;;;4.85;3.13;;;20.40;99.90;;;;;;5016708;28;20294;-91
2022/07/22 09:29:27;;;;;;;6.25;3.15;;;20.50;99.90;;;;;;5017823;28;20195;-89
2022/07/22 09:31:52;;;;;;;5.25;2.50;;;20.40;99.90;;;;;;5015694;28;20184;-87
2022/07/22 09:34:27;;;;;;;3.03;2.70;;;20.40;99.90;;;;;;5017580;28;20179;-89
2022/07/22 09:36:58;;;;;;;5.15;2.88;;;20.30;99.90;;;;;;5016681;28;20182;-93
2022/07/22 09:39:29;;;;;;;4.00;2.78;;;20.30;99.90;;;;;;5016780;28;20286;-92
2022/07/22 09:42:00;;;;;;;5.43;2.65;;;20.30;99.90;;;;;;5016932;28;20176;-89
2022/07/22 09:44:27;;;;;;;3.03;2.28;;;20.30;99.90;;;;;;5036138;28;20221;-91
2022/07/22 09:46:52;;;;;;;4.18;2.40;;;20.30;99.90;;;;;;5022271;28;20238;-89
2022/07/22 09:49:34;;;;;;;3.58;2.20;;;20.30;99.90;;;;;;5016427;28;20186;-89
2022/07/22 09:52:01;;;;;;;3.65;2.20;;;20.30;99.90;;;;;;5019276;28;20179;-90
2022/07/22 09:54:30;;;;;;;2.50;2.00;;;20.40;99.90;;;;;;5002512;28;20187;-91
2022/07/22 09:56:56;;;;;;;3.08;2.15;;;20.50;99.90;;;;;;5010940;28;20231;-88
2022/07/22 09:59:22;;;;;;;3.22;2.30;;;20.60;99.90;;;;;;5003007;28;20266;-91
2022/07/22 10:01:58;;;;;;;2.05;1.63;;;20.60;99.90;;;;;;5016832;28;20267;-91
2022/07/22 10:04:24;;;;;;;3.03;1.52;;;20.60;99.90;;;;;;5015139;28;20522;-87
2022/07/22 10:06:57;;;;;;;2.15;1.55;;;20.70;99.90;;;;;;5015940;28;20187;-89
2022/07/22 10:09:23;;;;;;;1.67;1.58;;;20.80;99.90;;;;;;4999444;28;20176;-90
2022/07/22 10:11:49;;;;;;;3.30;1.50;;;20.90;99.90;;;;;;4996514;28;20214;-90
2022/07/22 10:14:17;;;;;;;1.80;1.50;;;21.10;99.90;;;;;;4996629;28;20218;-90
2022/07/22 10:16:43;;;;;;;1.33;1.20;;;21.20;99.90;;;;;;5007450;28;20183;-91
2022/07/22 10:19:10;;;;;;;5.80;1.70;;;21.30;99.90;;;;;;5017041;28;20591;-90
2022/07/22 10:21:37;;;;;;;3.40;2.80;;;21.20;99.90;;;;;;5015989;28;20187;-90
2022/07/22 10:24:17;;;;;;;3.72;2.80;;;21.00;99.90;;;;;;5012870;28;20228;-89
2022/07/22 10:26:48;;;;;;;3.40;2.50;;;20.90;99.90;;;;;;5015658;28;20197;-88
2022/07/22 10:29:29;;;;;;;4.78;2.60;;;20.60;99.90;;;;;;5016783;28;20175;-89
2022/07/22 10:32:21;;;;;;;3.90;2.60;;;20.50;99.90;;;;;;5016343;28;20167;-89
2022/07/22 10:35:00;;;;;;;2.80;2.20;;;20.40;99.90;;;;;;4988466;28;20226;-87
2022/07/22 10:37:34;;;;;;;4.57;2.35;;;20.40;99.90;;;;;;5012184;28;20535;-89
2022/07/22 10:40:21;;;;;;;4.32;2.30;;;20.40;99.90;;;;;;5001663;28;20183;-88
2022/07/22 10:43:08;;;;;;;3.15;1.83;;;20.30;99.90;;;;;;5016590;28;20859;-89
2022/07/22 10:45:38;;;;;;;3.75;2.00;;;20.30;99.90;;;;;;5009291;28;20235;-89
2022/07/22 10:48:07;;;;;;;3.17;1.75;;;20.30;99.90;;;;;;4995322;28;20195;-86
2022/07/22 10:50:37;;;;;;;3.08;1.83;;;20.40;99.90;;;;;;5006148;28;20198;-91
2022/07/22 10:53:22;;;;;;;4.03;1.77;;;20.50;99.90;;;;;;5015453;28;20168;-86
2022/07/22 10:56:11;;;;;;;2.45;1.30;;;20.60;99.90;;;;;;5015280;28;20175;-87
2022/07/22 10:58:38;;;;;;;2.30;1.70;;;20.60;99.90;;;;;;5015417;28;20564;-87
2022/07/22 11:01:08;;;;;;;3.85;2.33;;;20.70;99.90;;;;;;4999880;28;20226;-91
2022/07/22 11:03:35;;;;;;;2.72;2.05;;;20.60;99.90;;;;;;4996578;28;20168;-90
2022/07/22 11:06:29;;;;;;;3.00;2.10;;;20.60;99.90;;;;;;4996363;28;20212;-89
2022/07/22 11:09:04;;;;;;;6.80;2.10;;;20.60;99.90;;;;;;4995517;28;20214;-91
2022/07/22 11:11:52;;;;;;;4.53;2.15;;;20.70;99.90;;;;;;4999955;28;20187;-87
2022/07/22 11:14:27;;;;;;;2.88;2.30;;;20.70;99.90;;;;;;5004684;28;20637;-87
2022/07/22 11:16:56;;;;;;;2.60;2.28;;;20.70;99.90;;;;;;5022801;28;20216;-90
2022/07/22 11:19:26;;;;;;;4.20;2.45;;;20.70;99.90;;;;;;5033817;28;20174;-91
2022/07/22 11:21:58;;;;;;;5.28;2.47;;;20.70;99.90;;;;;;5015915;28;20206;-87
2022/07/22 11:24:25;;;;;;;3.33;2.30;;;20.80;99.90;;;;;;5000143;28;20195;-91
2022/07/22 11:26:53;;;;;;;3.50;2.28;;;20.80;99.90;;;;;;4995772;28;20236;-91
2022/07/22 11:29:33;;;;;;;6.60;2.97;;;20.80;99.90;;;;;;5015471;28;20183;-90
2022/07/22 11:32:02;;;;;;;2.67;2.40;;;20.90;99.90;;;;;;5014515;28;20171;-90
2022/07/22 11:34:28;;;;;;;4.43;2.60;;;21.00;99.90;;;;;;4999325;28;20180;-88
2022/07/22 11:36:55;;;;;;;3.65;2.80;;;21.10;99.60;;;;;;4994795;28;20176;-88
2022/07/22 11:39:26;;;;;;;2.80;2.40;;;21.10;99.90;;;;;;4995055;28;20172;-89
2022/07/22 11:41:57;;;;;;;4.68;2.58;;;21.10;99.90;;;;;;5002035;28;20197;-90
2022/07/22 11:44:29;;;;;;;4.47;2.00;;;21.10;99.90;;;;;;5018920;28;20198;-89
2022/07/22 11:46:58;;;;;;;5.28;2.10;;;21.10;99.90;;;;;;5027863;28;20731;-92
2022/07/22 11:49:25;;;;;;;2.88;1.88;;;21.10;99.90;;;;;;5033429;28;20174;-91
2022/07/22 11:51:55;;;;;;;3.78;2.22;;;20.90;99.90;;;;;;5017832;28;20175;-88
2022/07/22 11:54:21;;;;;;;3.95;2.00;;;20.90;99.90;;;;;;5014565;28;20211;-90
2022/07/22 11:56:46;;;;;;;4.68;2.30;;;20.80;99.90;;;;;;5014446;28;20179;-90
2022/07/22 11:59:14;;;;;;;4.25;2.20;;;20.80;99.90;;;;;;5015710;28;20171;-89
2022/07/22 12:01:43;;;;;;;3.92;1.90;;;20.90;99.90;;;;;;5014293;28;20179;-92
2022/07/22 12:04:18;;;;;;;2.47;1.30;;;20.90;99.90;;;;;;5002834;28;20184;-87
2022/07/22 12:06:45;;;;;;;6.18;1.95;;;20.90;99.90;;;;;;5012997;28;20191;-89
2022/07/22 12:09:26;;;;;;;3.90;1.70;;;20.80;99.90;;;;;;5013655;28;20222;-90
2022/07/22 12:11:55;;;;;;;6.35;1.65;;;20.60;99.90;;;;;;5014143;28;20185;-89
2022/07/22 12:14:24;;;;;;;4.90;1.80;;;20.60;99.90;;;;;;5014273;28;20167;-90
2022/07/22 12:17:01;;;;;;;5.78;1.73;;;20.50;99.90;;;;;;5013520;28;20187;-90
2022/07/22 12:19:29;;;;;;;3.83;2.10;;;20.50;99.90;;;;;;5001856;28;20180;-87
2022/07/22 12:22:07;;;;;;;9.65;2.50;;;20.50;99.90;;;;;;5014211;28;20250;-92
2022/07/22 12:24:36;;;;;;;4.47;2.47;;;20.50;99.90;;;;;;5014078;28;20179;-91
2022/07/22 12:27:10;;;;;;;4.82;2.50;;;20.50;99.90;;;;;;5013384;28;20198;-90
2022/07/22 12:29:36;;;;;;;5.72;2.28;;;20.50;99.90;;;;;;5013847;28;20229;-91
2022/07/22 12:32:06;;;;;;;4.70;2.47;;;20.50;99.90;;;;;;5015914;28;20182;-89
2022/07/22 12:34:43;;;;;;;3.75;2.63;;;20.60;99.90;;;;;;5013349;28;20223;-91
2022/07/22 12:37:21;;;;;;;2.90;2.30;;;20.50;99.90;;;;;;4998127;28;20195;-89
2022/07/22 12:40:15;;;;;;;5.10;2.60;;;20.50;99.90;;;;;;4997634;28;20176;-92
2022/07/22 12:42:46;;;;;;;3.22;2.33;;;20.40;99.90;;;;;;4997449;28;20234;-90
2022/07/22 12:45:16;;;;;;;3.97;2.10;;;20.40;99.90;;;;;;4998228;28;20242;-90
2022/07/22 12:47:57;;;;;;;4.32;2.20;;;20.60;99.90;;;;;;5000836;28;20274;-90
2022/07/22 12:50:55;;;;;;;5.43;2.65;;;20.60;99.90;;;;;;5005889;28;20685;-90
2022/07/22 12:53:22;;;;;;;6.65;2.90;;;20.80;99.90;;;;;;5020768;28;20202;-89